createdAt,value
2023-10-03T00:01:07.713Z,19.26
2023-10-03T00:03:34.766Z,19.24
2023-10-03T00:06:02.042Z,19.28
2023-10-03T00:08:28.829Z,19.27
2023-10-03T00:10:55.420Z,19.26
2023-10-03T00:13:22.548Z,19.31
2023-10-03T00:15:49.709Z,19.22
2023-10-03T00:18:17.213Z,19.06
2023-10-03T00:20:44.571Z,19.04
2023-10-03T00:23:11.620Z,18.98
2023-10-03T00:25:39.729Z,19.07
2023-10-03T00:28:07.505Z,19.09
2023-10-03T00:30:37.432Z,19.12
2023-10-03T00:33:06.314Z,19.12
2023-10-03T00:35:33.648Z,19.02
2023-10-03T00:38:01.718Z,19.17
2023-10-03T00:40:29.217Z,19.22
2023-10-03T00:43:00.288Z,19.03
2023-10-03T00:45:27.948Z,18.95
2023-10-03T00:47:56.371Z,19.12
2023-10-03T00:50:24.866Z,19.05
2023-10-03T00:53:06.040Z,19.07
2023-10-03T00:55:34.741Z,19.04
2023-10-03T00:58:19.249Z,18.96
2023-10-03T01:00:50.801Z,18.89
2023-10-03T01:03:38.958Z,18.92
2023-10-03T01:06:10.355Z,18.92
2023-10-03T01:08:44.581Z,18.92
2023-10-03T01:11:18.867Z,18.89
2023-10-03T01:13:48.764Z,18.94
2023-10-03T01:16:35.997Z,19.00
2023-10-03T01:19:13.697Z,19.02
2023-10-03T01:21:43.195Z,19.09
2023-10-03T01:24:10.685Z,19.13
2023-10-03T01:26:37.344Z,19.17
2023-10-03T01:29:04.530Z,19.10
2023-10-03T01:31:31.813Z,18.96
2023-10-03T01:33:58.491Z,18.93
2023-10-03T01:36:28.044Z,19.09
2023-10-03T01:38:54.670Z,19.26
2023-10-03T01:41:21.323Z,19.26
2023-10-03T01:43:48.007Z,19.23
2023-10-03T01:46:14.953Z,19.20
2023-10-03T01:48:42.878Z,19.21
2023-10-03T01:51:10.516Z,19.33
2023-10-03T01:53:41.328Z,19.26
2023-10-03T01:56:08.293Z,19.19
2023-10-03T01:58:35.465Z,19.19
2023-10-03T02:01:02.484Z,19.09
2023-10-03T02:03:30.885Z,19.04
2023-10-03T02:05:57.938Z,19.02
2023-10-03T02:08:26.765Z,19.05
2023-10-03T02:10:54.553Z,19.27
2023-10-03T02:13:24.711Z,19.15
2023-10-03T02:15:54.289Z,19.03
2023-10-03T02:18:22.449Z,18.90
2023-10-03T02:20:54.713Z,18.84
2023-10-03T02:23:25.780Z,18.98
2023-10-03T02:26:19.177Z,19.00
2023-10-03T02:28:46.215Z,19.06
2023-10-03T02:31:12.890Z,19.18
2023-10-03T02:33:42.879Z,19.15
2023-10-03T02:36:11.667Z,19.15
2023-10-03T02:38:39.031Z,19.28
2023-10-03T02:41:08.098Z,19.39
2023-10-03T02:43:44.832Z,19.29
2023-10-03T02:46:22.342Z,19.19
2023-10-03T02:48:51.733Z,19.07
2023-10-03T02:51:18.545Z,19.01
2023-10-03T02:53:47.391Z,19.03
2023-10-03T02:56:15.966Z,19.03
2023-10-03T02:58:43.722Z,19.01
2023-10-03T03:01:11.213Z,18.96
2023-10-03T03:03:39.669Z,18.98
2023-10-03T03:06:15.525Z,18.93
2023-10-03T03:08:46.160Z,18.79
2023-10-03T03:11:16.767Z,19.01
2023-10-03T03:13:43.538Z,19.09
2023-10-03T03:16:12.906Z,19.03
2023-10-03T03:18:44.702Z,18.97
2023-10-03T03:21:16.940Z,19.09
2023-10-03T03:23:50.900Z,19.15
2023-10-03T03:26:22.036Z,19.19
2023-10-03T03:28:51.711Z,19.34
2023-10-03T03:31:27.211Z,19.42
2023-10-03T03:33:58.211Z,19.47
2023-10-03T03:36:32.049Z,19.57
2023-10-03T03:39:15.311Z,19.71
2023-10-03T03:41:43.526Z,19.74
2023-10-03T03:44:13.890Z,19.75
2023-10-03T03:46:42.161Z,19.69
2023-10-03T03:49:09.934Z,19.90
2023-10-03T03:51:37.425Z,19.85
2023-10-03T03:54:06.786Z,19.86
2023-10-03T03:56:34.757Z,19.73
2023-10-03T03:59:01.602Z,19.62
2023-10-03T04:01:28.455Z,19.58
2023-10-03T04:03:59.327Z,19.57
2023-10-03T04:06:26.105Z,19.54
2023-10-03T04:09:07.040Z,19.59
2023-10-03T04:11:37.817Z,19.73
2023-10-03T04:14:07.557Z,19.73
2023-10-03T04:16:40.892Z,19.70
2023-10-03T04:19:09.943Z,19.75
2023-10-03T04:21:41.083Z,19.76
2023-10-03T04:24:10.617Z,19.71
2023-10-03T04:26:38.220Z,19.55
2023-10-03T04:29:05.251Z,19.48
2023-10-03T04:31:32.084Z,19.46
2023-10-03T04:33:58.713Z,19.65
2023-10-03T04:36:27.331Z,19.40
2023-10-03T04:38:54.714Z,19.28
2023-10-03T04:41:21.713Z,19.19
2023-10-03T04:43:51.138Z,19.08
2023-10-03T04:46:18.284Z,19.18
2023-10-03T04:48:45.075Z,19.12
2023-10-03T04:51:15.635Z,19.21
2023-10-03T04:53:42.330Z,19.11
2023-10-03T04:56:08.910Z,19.08
2023-10-03T04:58:35.579Z,19.13
2023-10-03T05:01:02.214Z,19.10
2023-10-03T05:03:29.797Z,18.99
2023-10-03T05:05:56.623Z,18.90
2023-10-03T05:08:23.291Z,18.81
2023-10-03T05:10:50.562Z,18.78
2023-10-03T05:13:18.116Z,18.76
2023-10-03T05:15:46.120Z,18.85
2023-10-03T05:18:12.997Z,18.83
2023-10-03T05:20:39.941Z,18.76
2023-10-03T05:23:07.530Z,18.75
2023-10-03T05:25:43.705Z,18.71
2023-10-03T05:28:13.666Z,18.71
2023-10-03T05:30:41.454Z,18.78
2023-10-03T05:33:08.921Z,18.76
2023-10-03T05:35:36.399Z,18.72
2023-10-03T05:38:10.245Z,18.77
2023-10-03T05:40:37.798Z,18.80
2023-10-03T05:43:06.347Z,18.76
2023-10-03T05:45:36.174Z,18.78
2023-10-03T05:48:04.579Z,18.79
2023-10-03T05:50:32.629Z,18.85
2023-10-03T05:53:00.720Z,18.79
2023-10-03T05:55:27.358Z,18.87
2023-10-03T05:57:54.594Z,18.81
2023-10-03T06:00:22.612Z,18.86
2023-10-03T06:02:51.151Z,18.84
2023-10-03T06:05:18.064Z,18.86
2023-10-03T06:07:46.385Z,18.93
2023-10-03T06:10:17.033Z,18.91
2023-10-03T06:12:43.970Z,18.90
2023-10-03T06:15:12.360Z,18.90
2023-10-03T06:17:39.010Z,18.85
2023-10-03T06:20:07.491Z,18.90
2023-10-03T06:22:34.538Z,18.78
2023-10-03T06:25:01.528Z,18.67
2023-10-03T06:27:28.483Z,18.59
2023-10-03T06:29:55.542Z,18.48
2023-10-03T06:32:22.482Z,18.40
2023-10-03T06:34:49.274Z,18.28
2023-10-03T06:37:16.467Z,18.10
2023-10-03T06:39:43.313Z,18.07
2023-10-03T06:42:10.239Z,18.00
2023-10-03T06:44:42.206Z,18.17
2023-10-03T06:47:10.299Z,18.04
2023-10-03T06:49:37.149Z,18.03
2023-10-03T06:52:05.302Z,18.00
2023-10-03T06:54:32.194Z,18.06
2023-10-03T06:56:59.010Z,18.07
2023-10-03T06:59:25.872Z,18.10
2023-10-03T07:01:52.517Z,18.17
2023-10-03T07:04:19.881Z,18.18
2023-10-03T07:06:47.195Z,18.23
2023-10-03T07:09:15.038Z,18.33
2023-10-03T07:11:41.886Z,18.40
2023-10-03T07:14:12.944Z,18.47
2023-10-03T07:16:41.187Z,18.52
2023-10-03T07:19:10.751Z,18.56
2023-10-03T07:21:38.744Z,18.65
2023-10-03T07:24:05.940Z,18.65
2023-10-03T07:26:33.396Z,18.65
2023-10-03T07:29:02.574Z,18.61
2023-10-03T07:31:33.417Z,18.61
2023-10-03T07:34:01.042Z,18.58
2023-10-03T07:36:28.284Z,18.60
2023-10-03T07:38:55.458Z,18.54
2023-10-03T07:41:22.900Z,18.53
2023-10-03T07:43:49.908Z,18.53
2023-10-03T07:46:21.931Z,18.61
2023-10-03T07:48:50.467Z,18.60
2023-10-03T07:51:17.807Z,18.55
2023-10-03T07:53:44.767Z,18.56
2023-10-03T07:56:47.674Z,18.62
2023-10-03T07:59:15.794Z,18.69
2023-10-03T08:01:59.739Z,18.72
2023-10-03T08:04:33.054Z,18.78
2023-10-03T08:07:00.446Z,18.81
2023-10-03T08:09:27.125Z,18.87
2023-10-03T08:11:53.916Z,18.93
2023-10-03T08:14:20.448Z,18.92
2023-10-03T08:16:48.393Z,19.01
2023-10-03T08:19:26.196Z,18.99
2023-10-03T08:21:54.416Z,19.04
2023-10-03T08:24:29.769Z,19.08
2023-10-03T08:27:00.717Z,19.03
2023-10-03T08:29:29.017Z,18.92
2023-10-03T08:32:00.482Z,18.94
2023-10-03T08:34:31.552Z,18.78
2023-10-03T08:37:02.867Z,17.82
2023-10-03T08:39:33.822Z,17.11
2023-10-03T08:42:14.884Z,16.82
2023-10-03T08:44:56.334Z,16.71
2023-10-03T08:47:30.234Z,16.82
2023-10-03T08:50:30.507Z,17.08
2023-10-03T08:52:57.618Z,17.25
2023-10-03T08:55:27.674Z,17.31
2023-10-03T08:57:54.844Z,17.44
2023-10-03T09:00:27.144Z,17.52
2023-10-03T09:03:10.917Z,17.64
2023-10-03T09:05:41.225Z,17.74
2023-10-03T09:08:09.634Z,17.82
2023-10-03T09:10:52.130Z,17.88
2023-10-03T09:13:29.767Z,17.95
2023-10-03T09:16:02.738Z,17.77
2023-10-03T09:18:43.906Z,17.61
2023-10-03T09:21:25.923Z,17.48
2023-10-03T09:24:00.624Z,17.32
2023-10-03T09:26:35.107Z,17.33
2023-10-03T09:29:09.117Z,17.27
2023-10-03T09:31:36.883Z,17.33
2023-10-03T09:34:03.660Z,17.40
2023-10-03T09:36:31.025Z,17.47
2023-10-03T09:38:57.594Z,17.52
2023-10-03T09:41:25.670Z,17.51
2023-10-03T09:43:56.326Z,17.55
2023-10-03T09:46:42.464Z,17.55
2023-10-03T09:49:12.290Z,17.33
2023-10-03T09:51:48.101Z,17.21
2023-10-03T09:54:25.851Z,17.20
2023-10-03T09:56:56.620Z,17.46
2023-10-03T09:59:25.604Z,17.62
2023-10-03T10:01:56.494Z,17.72
2023-10-03T10:04:26.084Z,17.75
2023-10-03T10:07:17.930Z,17.63
2023-10-03T10:10:02.177Z,17.68
2023-10-03T10:12:29.889Z,17.78
2023-10-03T10:15:12.060Z,17.74
2023-10-03T10:17:57.101Z,17.56
2023-10-03T10:20:28.721Z,17.22
2023-10-03T10:23:02.993Z,17.06
2023-10-03T10:25:31.974Z,17.01
2023-10-03T10:28:06.617Z,17.02
2023-10-03T10:30:34.119Z,16.98
2023-10-03T10:33:24.632Z,17.03
2023-10-03T10:35:56.410Z,17.09
2023-10-03T10:38:43.340Z,17.26
2023-10-03T10:41:13.331Z,17.29
2023-10-03T10:44:11.117Z,17.34
2023-10-03T10:46:40.334Z,17.25
2023-10-03T10:49:35.019Z,16.92
2023-10-03T10:52:02.835Z,16.71
2023-10-03T10:54:29.807Z,16.39
2023-10-03T10:57:07.095Z,16.32
2023-10-03T10:59:41.875Z,16.18
2023-10-03T11:02:15.977Z,16.18
2023-10-03T11:04:42.841Z,16.30
2023-10-03T11:07:09.517Z,16.42
2023-10-03T11:09:39.640Z,16.53
2023-10-03T11:12:08.096Z,16.63
2023-10-03T11:14:35.211Z,16.96
2023-10-03T11:17:04.224Z,17.08
2023-10-03T11:19:33.106Z,17.01
2023-10-03T11:21:59.939Z,16.92
2023-10-03T11:24:28.516Z,16.87
2023-10-03T11:26:58.492Z,16.89
2023-10-03T11:29:47.978Z,16.72
2023-10-03T11:32:24.930Z,16.79
2023-10-03T11:34:56.304Z,16.89
2023-10-03T11:37:38.224Z,16.80
2023-10-03T11:40:19.709Z,16.53
2023-10-03T11:42:51.230Z,16.44
2023-10-03T11:45:20.426Z,16.29
2023-10-03T11:48:09.151Z,16.13
2023-10-03T11:50:40.832Z,16.14
2023-10-03T11:53:10.124Z,16.15
2023-10-03T11:55:37.782Z,16.11
2023-10-03T11:58:07.075Z,15.96
2023-10-03T12:00:34.771Z,15.91
2023-10-03T12:03:04.056Z,15.69
2023-10-03T12:05:30.998Z,15.68
2023-10-03T12:08:00.649Z,15.61
2023-10-03T12:10:27.701Z,15.58
2023-10-03T12:12:54.499Z,15.65
2023-10-03T12:15:24.867Z,15.79
2023-10-03T12:17:52.282Z,15.87
2023-10-03T12:20:20.639Z,16.02
2023-10-03T12:22:50.767Z,15.94
2023-10-03T12:25:19.586Z,16.10
2023-10-03T12:27:46.525Z,16.12
2023-10-03T12:30:16.429Z,16.25
2023-10-03T12:32:48.884Z,16.29
2023-10-03T12:35:17.158Z,16.55
2023-10-03T12:37:48.601Z,16.83
2023-10-03T12:40:20.528Z,16.99
2023-10-03T12:42:48.588Z,17.17
2023-10-03T12:45:18.415Z,17.07
2023-10-03T12:47:50.437Z,16.94
2023-10-03T12:50:28.899Z,16.74
2023-10-03T12:52:57.352Z,16.51
2023-10-03T12:55:26.529Z,16.37
2023-10-03T12:57:55.451Z,16.27
2023-10-03T13:00:22.442Z,16.08
2023-10-03T13:02:50.501Z,15.87
2023-10-03T13:05:18.575Z,15.71
2023-10-03T13:07:49.178Z,15.60
2023-10-03T13:10:20.172Z,15.70
2023-10-03T13:12:49.778Z,15.63
2023-10-03T13:15:19.409Z,15.76
2023-10-03T13:17:49.296Z,16.04
2023-10-03T13:20:19.227Z,16.07
2023-10-03T13:22:48.425Z,15.83
2023-10-03T13:25:21.608Z,15.78
2023-10-03T13:27:49.490Z,15.81
2023-10-03T13:30:20.414Z,15.76
2023-10-03T13:32:51.421Z,15.79
2023-10-03T13:35:21.670Z,15.81
2023-10-03T13:37:52.692Z,15.79
2023-10-03T13:40:20.180Z,15.72
2023-10-03T13:42:49.058Z,15.65
2023-10-03T13:45:17.077Z,15.57
2023-10-03T13:47:46.378Z,15.61
2023-10-03T13:50:14.470Z,15.82
2023-10-03T13:52:42.217Z,16.06
2023-10-03T13:55:13.021Z,16.14
2023-10-03T13:57:43.634Z,16.09
2023-10-03T14:00:14.461Z,15.97
2023-10-03T14:02:52.404Z,15.99
2023-10-03T14:05:27.113Z,16.14
2023-10-03T14:07:53.697Z,16.46
2023-10-03T14:10:23.232Z,16.73
2023-10-03T14:12:50.240Z,16.93
2023-10-03T14:15:21.923Z,16.99
2023-10-03T14:17:49.719Z,16.71
2023-10-03T14:20:17.555Z,16.31
2023-10-03T14:22:44.500Z,16.15
2023-10-03T14:25:13.674Z,16.05
2023-10-03T14:27:43.016Z,16.09
2023-10-03T14:30:11.546Z,16.09
2023-10-03T14:32:39.270Z,16.09
2023-10-03T14:35:09.011Z,16.07
2023-10-03T14:37:37.054Z,16.05
2023-10-03T14:40:10.361Z,16.04
2023-10-03T14:42:38.125Z,16.11
2023-10-03T14:45:05.749Z,16.19
2023-10-03T14:47:33.001Z,16.20
2023-10-03T14:49:59.657Z,16.22
2023-10-03T14:52:26.527Z,16.17
2023-10-03T14:54:53.190Z,16.17
2023-10-03T14:57:19.823Z,16.12
2023-10-03T14:59:46.503Z,16.05
2023-10-03T15:02:14.563Z,16.04
2023-10-03T15:04:43.527Z,16.07
2023-10-03T15:07:12.214Z,16.11
2023-10-03T15:09:40.734Z,16.22
2023-10-03T15:12:07.706Z,16.20
2023-10-03T15:14:34.434Z,16.22
2023-10-03T15:17:02.337Z,16.33
2023-10-03T15:19:29.029Z,16.46
2023-10-03T15:21:57.485Z,16.44
2023-10-03T15:24:24.275Z,16.50
2023-10-03T15:26:50.868Z,16.55
2023-10-03T15:29:17.902Z,16.64
2023-10-03T15:31:46.166Z,16.55
2023-10-03T15:34:12.944Z,16.51
2023-10-03T15:36:39.770Z,16.37
2023-10-03T15:39:09.610Z,16.29
2023-10-03T15:41:39.156Z,16.29
2023-10-03T15:44:05.972Z,16.32
2023-10-03T15:46:35.825Z,16.28
2023-10-03T15:49:03.085Z,16.24
2023-10-03T15:51:29.969Z,16.15
2023-10-03T15:53:56.608Z,16.04
2023-10-03T15:56:24.360Z,15.95
2023-10-03T15:58:50.984Z,15.87
2023-10-03T16:01:18.214Z,15.86
2023-10-03T16:03:46.759Z,15.81
2023-10-03T16:06:13.860Z,15.95
2023-10-03T16:08:45.322Z,15.90
2023-10-03T16:11:13.828Z,15.83
2023-10-03T16:13:40.512Z,15.79
2023-10-03T16:16:07.903Z,15.72
2023-10-03T16:18:35.115Z,15.86
2023-10-03T16:21:02.403Z,15.70
2023-10-03T16:23:29.187Z,15.65
2023-10-03T16:25:56.027Z,15.61
2023-10-03T16:28:22.651Z,15.60
2023-10-03T16:30:49.849Z,15.57
2023-10-03T16:33:16.724Z,15.41
2023-10-03T16:35:43.438Z,15.41
2023-10-03T16:38:10.019Z,15.49
2023-10-03T16:40:36.759Z,15.40
2023-10-03T16:43:03.492Z,15.29
2023-10-03T16:45:31.661Z,15.24
2023-10-03T16:47:58.339Z,15.13
2023-10-03T16:50:25.542Z,15.12
2023-10-03T16:52:52.592Z,15.02
2023-10-03T16:55:20.312Z,14.94
2023-10-03T16:57:47.465Z,14.99
2023-10-03T17:00:14.829Z,14.89
2023-10-03T17:02:42.575Z,14.84
2023-10-03T17:05:10.637Z,14.74
2023-10-03T17:07:41.307Z,14.62
2023-10-03T17:10:13.644Z,14.55
2023-10-03T17:12:40.536Z,14.59
2023-10-03T17:15:11.413Z,14.53
2023-10-03T17:17:42.775Z,14.46
2023-10-03T17:20:16.221Z,14.56
2023-10-03T17:22:44.296Z,14.47
2023-10-03T17:25:11.565Z,14.39
2023-10-03T17:27:40.601Z,14.36
2023-10-03T17:30:09.680Z,14.32
2023-10-03T17:32:36.546Z,14.22
2023-10-03T17:35:06.552Z,14.14
2023-10-03T17:37:33.353Z,14.19
2023-10-03T17:40:00.451Z,14.07
2023-10-03T17:42:30.269Z,14.08
2023-10-03T17:44:57.413Z,13.99
2023-10-03T17:47:24.780Z,14.05
2023-10-03T17:49:53.540Z,13.99
2023-10-03T17:52:22.709Z,13.98
2023-10-03T17:54:49.619Z,13.92
2023-10-03T17:57:16.406Z,13.90
2023-10-03T17:59:50.146Z,13.80
2023-10-03T18:02:20.089Z,13.79
2023-10-03T18:04:47.683Z,13.75
2023-10-03T18:07:14.866Z,13.76
2023-10-03T18:09:42.188Z,13.75
2023-10-03T18:12:08.893Z,13.78
2023-10-03T18:14:35.532Z,13.91
2023-10-03T18:17:04.532Z,13.94
2023-10-03T18:19:31.240Z,13.89
2023-10-03T18:22:00.718Z,13.79
2023-10-03T18:24:28.474Z,13.87
2023-10-03T18:26:55.457Z,13.86
2023-10-03T18:29:22.187Z,13.82
2023-10-03T18:31:48.879Z,13.82
2023-10-03T18:34:15.551Z,13.86
2023-10-03T18:36:42.764Z,13.95
2023-10-03T18:39:10.005Z,13.95
2023-10-03T18:41:36.848Z,13.87
2023-10-03T18:44:03.881Z,13.84
2023-10-03T18:46:30.854Z,13.85
2023-10-03T18:48:58.207Z,13.80
2023-10-03T18:51:24.913Z,13.75
2023-10-03T18:53:51.929Z,13.83
2023-10-03T18:56:19.164Z,13.97
2023-10-03T18:58:45.792Z,14.05
2023-10-03T19:01:25.528Z,14.10
2023-10-03T19:03:58.066Z,14.17
2023-10-03T19:06:25.375Z,14.22
2023-10-03T19:08:53.252Z,14.25
2023-10-03T19:11:21.229Z,14.33
2023-10-03T19:13:47.842Z,14.39
2023-10-03T19:16:19.551Z,14.45
2023-10-03T19:18:47.187Z,14.38
2023-10-03T19:21:13.823Z,14.33
2023-10-03T19:23:41.600Z,14.26
2023-10-03T19:26:09.022Z,14.17
2023-10-03T19:28:39.263Z,14.14
2023-10-03T19:31:12.943Z,14.16
2023-10-03T19:33:41.659Z,14.17
2023-10-03T19:36:12.543Z,14.09
2023-10-03T19:38:39.593Z,13.91
2023-10-03T19:41:13.166Z,13.90
2023-10-03T19:43:41.146Z,13.86
2023-10-03T19:46:11.176Z,13.76
2023-10-03T19:48:37.897Z,13.75
2023-10-03T19:51:07.669Z,13.71
2023-10-03T19:53:34.917Z,13.73
2023-10-03T19:56:12.060Z,13.84
2023-10-03T19:58:47.976Z,13.79
2023-10-03T20:01:47.375Z,13.86
2023-10-03T20:04:14.707Z,13.99
2023-10-03T20:06:43.505Z,14.01
2023-10-03T20:09:13.704Z,14.03
2023-10-03T20:11:46.348Z,14.01
2023-10-03T20:14:13.385Z,14.05
2023-10-03T20:16:40.357Z,14.15
2023-10-03T20:19:08.156Z,14.19
2023-10-03T20:21:35.258Z,14.23
2023-10-03T20:24:02.135Z,14.25
2023-10-03T20:26:31.651Z,14.13
2023-10-03T20:28:59.088Z,14.06
2023-10-03T20:31:25.739Z,13.86
2023-10-03T20:33:52.736Z,13.67
2023-10-03T20:36:19.568Z,13.51
2023-10-03T20:38:46.195Z,13.41
2023-10-03T20:41:17.035Z,13.27
2023-10-03T20:43:43.980Z,13.48
2023-10-03T20:46:16.606Z,13.60
2023-10-03T20:48:44.077Z,13.63
2023-10-03T20:51:31.093Z,13.65
2023-10-03T20:53:59.210Z,13.67
2023-10-03T20:56:26.034Z,13.64
2023-10-03T20:58:55.817Z,13.64
2023-10-03T21:01:22.491Z,13.65
2023-10-03T21:03:50.613Z,13.70
2023-10-03T21:06:17.849Z,13.74
2023-10-03T21:08:44.785Z,13.78
2023-10-03T21:11:17.123Z,13.84
2023-10-03T21:13:44.431Z,13.83
2023-10-03T21:16:11.320Z,13.85
2023-10-03T21:18:38.044Z,13.88
2023-10-03T21:21:04.876Z,13.86
2023-10-03T21:23:32.750Z,13.90
2023-10-03T21:26:08.996Z,13.86
2023-10-03T21:28:36.312Z,13.90
2023-10-03T21:31:05.802Z,13.91
2023-10-03T21:33:32.926Z,13.88
2023-10-03T21:36:02.502Z,13.79
2023-10-03T21:38:29.883Z,13.69
2023-10-03T21:40:56.522Z,13.65
2023-10-03T21:43:23.144Z,13.48
2023-10-03T21:45:52.178Z,13.43
2023-10-03T21:48:19.196Z,13.25
2023-10-03T21:50:46.231Z,13.18
2023-10-03T21:53:13.463Z,13.09
2023-10-03T21:55:45.525Z,13.11
2023-10-03T21:58:12.337Z,13.16
2023-10-03T22:00:40.339Z,13.11
2023-10-03T22:03:07.471Z,12.95
2023-10-03T22:05:34.121Z,13.06
2023-10-03T22:08:01.979Z,12.93
2023-10-03T22:10:31.112Z,12.90
2023-10-03T22:12:58.455Z,12.89
2023-10-03T22:15:25.625Z,12.81
2023-10-03T22:17:52.759Z,12.77
2023-10-03T22:20:19.910Z,12.75
2023-10-03T22:22:46.528Z,12.67
2023-10-03T22:25:13.626Z,12.66
2023-10-03T22:27:40.972Z,12.65
2023-10-03T22:30:10.086Z,12.60
2023-10-03T22:32:36.900Z,12.47
2023-10-03T22:35:03.752Z,12.46
2023-10-03T22:37:30.504Z,12.47
2023-10-03T22:39:57.352Z,12.44
2023-10-03T22:42:24.147Z,12.46
2023-10-03T22:44:50.846Z,12.48
2023-10-03T22:47:17.535Z,12.40
2023-10-03T22:49:44.386Z,12.50
2023-10-03T22:52:11.152Z,12.33
2023-10-03T22:54:37.891Z,12.30
2023-10-03T22:57:04.698Z,12.24
2023-10-03T22:59:31.317Z,12.34
2023-10-03T23:01:57.925Z,12.31
2023-10-03T23:04:24.518Z,12.31
2023-10-03T23:06:51.423Z,12.36
2023-10-03T23:09:18.335Z,12.49
2023-10-03T23:11:45.115Z,12.59
2023-10-03T23:14:12.212Z,12.66
2023-10-03T23:16:38.994Z,12.66
2023-10-03T23:19:07.180Z,12.74
2023-10-03T23:21:34.317Z,12.81
2023-10-03T23:24:01.446Z,12.91
2023-10-03T23:26:28.398Z,12.83
2023-10-03T23:28:54.926Z,12.68
2023-10-03T23:31:21.632Z,12.48
2023-10-03T23:33:48.486Z,12.45
2023-10-03T23:36:15.612Z,12.35
2023-10-03T23:38:43.038Z,12.29
2023-10-03T23:41:11.378Z,12.37
2023-10-03T23:43:38.693Z,12.48
2023-10-03T23:46:08.028Z,12.59
2023-10-03T23:48:36.601Z,12.59
2023-10-03T23:51:04.340Z,12.66
2023-10-03T23:53:31.449Z,12.75
2023-10-03T23:55:59.637Z,12.84
2023-10-03T23:58:26.538Z,12.96
